Time;durP1;ratioP1;P1;durP2;ratioP2;P2;SDS_P1;SDS_P2;PMS_P1;PMS_P2;Temp;Humidity;BMP_temperature;BMP_pressure;BME280_temperature;BME280_humidity;BME280_pressure;Samples;Min_cycle;Max_cycle;Signal;HPM_P1;HPM_P2
2023/09/22 00:00:15;;;;;;;;;0.00;0.00;;;;;22.72;45.51;99549.53;4958636;28;45386;-58
2023/09/22 00:02:43;;;;;;;;;1.00;0.00;;;;;22.73;45.57;99548.56;4957954;28;47269;-55
2023/09/22 00:05:10;;;;;;;;;1.00;0.00;;;;;22.70;45.76;99554.97;4958051;28;45441;-56
2023/09/22 00:07:35;;;;;;;;;0.00;0.00;;;;;22.69;45.63;99558.56;4958226;28;45358;-50
2023/09/22 00:10:01;;;;;;;;;0.00;0.00;;;;;22.67;45.48;99552.56;4958475;28;45315;-52
2023/09/22 00:12:29;;;;;;;;;0.00;0.00;;;;;22.67;45.62;99547.28;4958029;28;46169;-56
2023/09/22 00:14:54;;;;;;;;;0.00;0.00;;;;;22.67;45.76;99555.22;4958363;28;45614;-56
2023/09/22 00:17:19;;;;;;;;;0.00;0.00;;;;;22.68;45.81;99551.63;4958137;28;45236;-54
2023/09/22 00:19:45;;;;;;;;;0.00;0.00;;;;;22.66;45.40;99540.34;4957480;28;58866;-55
2023/09/22 00:22:10;;;;;;;;;0.00;0.00;;;;;22.67;45.71;99549.94;4957711;28;45988;-52
2023/09/22 00:24:36;;;;;;;;;0.00;0.00;;;;;22.66;45.68;99542.97;4957299;28;58497;-55
2023/09/22 00:27:01;;;;;;;;;2.00;1.00;;;;;22.64;45.51;99540.47;4957864;28;45277;-51
2023/09/22 00:29:26;;;;;;;;;0.00;0.00;;;;;22.63;45.33;99544.09;4958404;28;45532;-53
2023/09/22 00:31:52;;;;;;;;;0.00;0.00;;;;;22.59;45.37;99541.84;4957575;28;46423;-55
2023/09/22 00:34:17;;;;;;;;;0.00;0.00;;;;;22.61;45.72;99555.75;4957732;28;45333;-52
2023/09/22 00:36:43;;;;;;;;;0.00;0.00;;;;;22.59;45.80;99547.13;4957435;28;45298;-55
2023/09/22 00:39:09;;;;;;;;;0.00;0.00;;;;;22.61;45.68;99555.75;4957978;28;45456;-54
2023/09/22 00:41:34;;;;;;;;;0.00;0.00;;;;;22.61;45.88;99551.28;4957465;28;45373;-55
2023/09/22 00:44:00;;;;;;;;;1.00;0.00;;;;;22.63;45.78;99546.72;4957556;28;45390;-56
2023/09/22 00:46:26;;;;;;;;;0.00;0.00;;;;;22.63;45.59;99548.53;4957896;28;45397;-53
2023/09/22 00:48:55;;;;;;;;;0.00;0.00;;;;;22.62;45.92;99550.31;4957707;28;45550;-55
2023/09/22 00:51:21;;;;;;;;;0.00;0.00;;;;;22.62;45.05;99546.88;4957364;28;47050;-54
2023/09/22 00:53:48;;;;;;;;;1.00;0.00;;;;;22.61;45.64;99545.19;4940117;28;45306;-53
2023/09/22 00:56:20;;;;;;;;;0.00;0.00;;;;;22.60;45.33;99548.78;4957628;28;45402;-53
2023/09/22 00:58:47;;;;;;;;;1.00;0.00;;;;;22.57;45.34;99549.03;4957701;28;45232;-54
2023/09/22 01:01:13;;;;;;;;;0.25;0.00;;;;;22.60;45.38;99548.78;4957341;28;46250;-55
2023/09/22 01:03:38;;;;;;;;;0.00;0.00;;;;;22.58;45.47;99541.00;4957321;28;45353;-58
2023/09/22 01:06:09;;;;;;;;;0.00;0.00;;;;;22.57;44.83;99544.63;4957462;28;45482;-57
2023/09/22 01:08:34;;;;;;;;;0.00;0.00;;;;;22.58;45.24;99550.72;4957520;28;45465;-52
2023/09/22 01:11:01;;;;;;;;;1.00;0.00;;;;;22.57;45.57;99549.03;4957443;28;46937;-55
2023/09/22 01:13:27;;;;;;;;;0.25;0.00;;;;;22.58;45.62;99545.44;4957647;28;45649;-54
2023/09/22 01:15:52;;;;;;;;;0.00;0.00;;;;;22.58;44.98;99548.06;4957309;28;45247;-55
2023/09/22 01:18:17;;;;;;;;;0.50;0.00;;;;;22.61;45.09;99550.47;4957402;28;45413;-53
2023/09/22 01:20:44;;;;;;;;;0.50;0.00;;;;;22.59;45.50;99553.25;4956305;28;66083;-57
2023/09/22 01:23:13;;;;;;;;;0.00;0.00;;;;;22.59;45.04;99547.13;4957194;28;45711;-54
2023/09/22 01:25:44;;;;;;;;;0.00;0.00;;;;;22.59;44.83;99539.19;4955863;28;45331;-54
2023/09/22 01:28:11;;;;;;;;;0.00;0.00;;;;;22.58;45.03;99533.09;4957396;28;45449;-55
2023/09/22 01:30:36;;;;;;;;;2.00;0.00;;;;;22.57;45.33;99538.47;4953329;28;45980;-55
2023/09/22 01:33:03;;;;;;;;;0.00;0.00;;;;;22.57;44.88;99538.47;4937720;28;45489;-52
2023/09/22 01:35:32;;;;;;;;;0.00;0.00;;;;;22.54;45.07;99529.03;4938151;28;45369;-54
2023/09/22 01:38:08;;;;;;;;;1.00;0.00;;;;;22.55;44.83;99544.72;4938211;28;45506;-53
2023/09/22 01:40:33;;;;;;;;;0.00;0.00;;;;;22.53;45.11;99538.75;4937449;28;47395;-54
2023/09/22 01:42:58;;;;;;;;;0.00;0.00;;;;;22.54;45.11;99537.75;4937733;28;50207;-56
2023/09/22 01:45:24;;;;;;;;;0.00;0.00;;;;;22.53;44.89;99533.47;4937448;28;45341;-55
2023/09/22 01:47:49;;;;;;;;;2.00;0.00;;;;;22.55;45.05;99536.81;4937516;28;56227;-54
2023/09/22 01:50:15;;;;;;;;;0.00;0.00;;;;;22.54;44.82;99540.41;4939393;28;48012;-56
2023/09/22 01:52:40;;;;;;;;;2.00;0.00;;;;;22.55;44.97;99547.38;4939646;28;45290;-54
2023/09/22 01:55:06;;;;;;;;;0.00;0.00;;;;;22.57;44.89;99549.91;4940547;28;50235;-52
2023/09/22 01:57:32;;;;;;;;;0.00;0.00;;;;;22.57;45.08;99543.75;4941252;28;45481;-53
2023/09/22 01:59:57;;;;;;;;;0.00;0.00;;;;;22.55;44.73;99544.72;4940647;28;46427;-54
2023/09/22 02:02:23;;;;;;;;;3.00;0.50;;;;;22.55;44.58;99547.38;4939990;28;59423;-56
2023/09/22 02:04:48;;;;;;;;;0.50;0.00;;;;;22.52;45.05;99544.16;4940255;28;53619;-53
2023/09/22 02:07:14;;;;;;;;;0.00;0.00;;;;;22.50;45.02;99541.66;4940326;28;51621;-54
2023/09/22 02:09:39;;;;;;;;;0.25;0.00;;;;;22.51;44.75;99540.69;4940400;28;46935;-51
2023/09/22 02:12:05;;;;;;;;;0.50;0.00;;;;;22.51;44.81;99550.41;4940466;28;45343;-53
2023/09/22 02:14:30;;;;;;;;;0.50;0.00;;;;;22.50;44.63;99549.56;4940825;28;45303;-53
2023/09/22 02:16:55;;;;;;;;;0.50;0.00;;;;;22.49;44.84;99547.91;4940762;28;45559;-55
2023/09/22 02:19:21;;;;;;;;;0.00;0.00;;;;;22.47;44.25;99547.19;4940444;28;45348;-55
2023/09/22 02:21:46;;;;;;;;;0.00;0.00;;;;;22.44;44.57;99555.34;4940383;28;45406;-55
2023/09/22 02:24:11;;;;;;;;;0.00;0.00;;;;;22.43;44.79;99552.84;4940510;28;45479;-54
2023/09/22 02:26:37;;;;;;;;;0.75;0.75;;;;;22.43;44.49;99547.56;4939796;28;54688;-54
2023/09/22 02:29:02;;;;;;;;;1.00;0.00;;;;;22.43;44.67;99553.72;4940470;28;46361;-57
2023/09/22 02:31:28;;;;;;;;;2.00;0.00;;;;;22.43;44.44;99544.94;4922982;28;45335;-55
2023/09/22 02:33:53;;;;;;;;;0.50;0.00;;;;;22.45;44.65;99549.09;4940328;28;45379;-53
2023/09/22 02:36:19;;;;;;;;;0.00;0.00;;;;;22.45;44.55;99546.47;4939187;28;45571;-54
2023/09/22 02:38:44;;;;;;;;;0.25;0.00;;;;;22.46;44.65;99558.69;4939984;28;46230;-52
2023/09/22 02:41:11;;;;;;;;;0.00;0.00;;;;;22.45;44.40;99558.84;4940007;28;45397;-54
2023/09/22 02:43:37;;;;;;;;;0.00;0.00;;;;;22.45;44.33;99554.38;4940208;28;45341;-54
2023/09/22 02:46:05;;;;;;;;;1.75;0.00;;;;;22.46;44.19;99563.97;4940354;28;45351;-55
2023/09/22 02:48:31;;;;;;;;;2.00;0.00;;;;;22.45;44.55;99557.03;4940102;28;45433;-57
2023/09/22 02:50:57;;;;;;;;;0.75;0.00;;;;;22.46;44.43;99552.59;4939659;28;45281;-55
2023/09/22 02:53:22;;;;;;;;;0.00;0.00;;;;;22.47;44.34;99555.09;4939993;28;45439;-54
2023/09/22 02:55:47;;;;;;;;;0.00;0.00;;;;;22.48;44.50;99559.41;4940065;28;45291;-54
2023/09/22 02:58:14;;;;;;;;;0.00;0.00;;;;;22.47;44.51;99560.38;4939152;28;62770;-54
2023/09/22 03:00:43;;;;;;;;;1.00;0.00;;;;;22.47;44.27;99565.66;4939526;28;45393;-55
2023/09/22 03:03:10;;;;;;;;;0.00;0.00;;;;;22.47;44.44;99560.38;4939871;28;45314;-53
2023/09/22 03:05:36;;;;;;;;;1.00;0.00;;;;;22.46;44.39;99549.97;4939770;28;45531;-54
2023/09/22 03:08:04;;;;;;;;;1.00;0.00;;;;;22.45;44.08;99557.03;4939572;28;47096;-53
2023/09/22 03:10:29;;;;;;;;;0.25;0.25;;;;;22.46;44.57;99553.44;4939632;28;45782;-56
2023/09/22 03:12:55;;;;;;;;;0.00;0.00;;;;;22.46;44.54;99550.78;4939411;28;45653;-55
2023/09/22 03:15:20;;;;;;;;;0.00;0.00;;;;;22.45;44.09;99549.09;4939643;28;45307;-53
2023/09/22 03:17:45;;;;;;;;;2.00;0.00;;;;;22.44;44.04;99542.16;4939327;28;46898;-55
2023/09/22 03:20:12;;;;;;;;;2.00;0.00;;;;;22.45;44.09;99545.66;4939453;28;45359;-52
2023/09/22 03:22:38;;;;;;;;;0.00;0.00;;;;;22.42;44.36;99538.81;4938655;28;45474;-53
2023/09/22 03:25:05;;;;;;;;;0.00;0.00;;;;;22.43;44.26;99551.06;4939894;28;45411;-54
2023/09/22 03:27:36;;;;;;;;;0.50;0.00;;;;;22.43;44.33;99548.44;4939201;28;46541;-55
2023/09/22 03:30:05;;;;;;;;;0.00;0.00;;;;;22.43;44.17;99559.00;4939387;28;45414;-54
2023/09/22 03:32:30;;;;;;;;;0.00;0.00;;;;;22.43;44.21;99558.13;4939390;28;45234;-55
2023/09/22 03:34:57;;;;;;;;;0.00;0.00;;;;;22.42;44.00;99561.72;4939467;28;45305;-54
2023/09/22 03:37:27;;;;;;;;;0.75;0.00;;;;;22.43;43.91;99559.00;4939134;28;46920;-55
2023/09/22 03:39:52;;;;;;;;;0.00;0.00;;;;;22.42;44.22;99553.81;4939265;28;45302;-52
2023/09/22 03:42:17;;;;;;;;;0.00;0.00;;;;;22.37;44.26;99546.25;4921983;28;45409;-57
2023/09/22 03:44:43;;;;;;;;;0.00;0.00;;;;;22.40;44.18;99553.91;4939198;28;45304;-55
2023/09/22 03:47:08;;;;;;;;;1.00;0.00;;;;;22.39;44.28;99552.25;4939230;28;46297;-57
2023/09/22 03:49:33;;;;;;;;;0.00;0.00;;;;;22.36;43.88;99552.50;4937650;28;45565;-54
2023/09/22 03:51:59;;;;;;;;;2.00;0.00;;;;;22.37;44.26;99548.88;4939079;28;45240;-53
2023/09/22 03:54:24;;;;;;;;;0.00;0.00;;;;;22.36;44.33;99545.44;4939278;28;45563;-55
2023/09/22 03:56:52;;;;;;;;;0.00;0.00;;;;;22.34;44.32;99546.50;4940689;28;63449;-53
2023/09/22 03:59:18;;;;;;;;;1.00;1.00;;;;;22.32;44.13;99545.81;4958295;28;45303;-53
2023/09/22 04:01:44;;;;;;;;;0.00;0.00;;;;;22.30;44.05;99553.84;4957592;28;59311;-52
2023/09/22 04:04:10;;;;;;;;;0.00;0.00;;;;;22.29;44.49;99548.69;4958758;28;45390;-54
2023/09/22 04:06:35;;;;;;;;;0.50;0.50;;;;;22.27;44.01;99553.25;4957964;28;46023;-54
2023/09/22 04:09:07;;;;;;;;;2.25;0.00;;;;;22.28;44.25;99549.66;4958136;28;45302;-54
2023/09/22 04:11:36;;;;;;;;;0.00;0.00;;;;;22.28;44.15;99549.66;4957596;28;45410;-57
2023/09/22 04:14:01;;;;;;;;;0.00;0.00;;;;;22.27;44.35;99542.72;4957151;28;46097;-54
2023/09/22 04:16:27;;;;;;;;;0.00;0.00;;;;;22.24;44.21;99547.28;4957950;28;45379;-53
2023/09/22 04:18:54;;;;;;;;;0.50;0.00;;;;;22.26;44.53;99546.31;4957289;28;63953;-56
2023/09/22 04:21:22;;;;;;;;;1.00;0.00;;;;;22.26;44.48;99543.66;4956713;28;45276;-55
2023/09/22 04:23:57;;;;;;;;;0.25;0.00;;;;;22.25;44.38;99540.22;4958168;28;45329;-54
2023/09/22 04:26:28;;;;;;;;;2.00;1.00;;;;;22.24;44.13;99549.91;4957388;28;47465;-55
2023/09/22 04:28:55;;;;;;;;;1.00;1.00;;;;;22.25;44.41;99548.13;4957639;28;45695;-55
2023/09/22 04:31:23;;;;;;;;;2.00;0.00;;;;;22.23;44.29;99542.94;4957884;28;45382;-55
2023/09/22 04:33:48;;;;;;;;;1.25;0.00;;;;;22.23;44.17;99539.50;4958127;28;45310;-53
2023/09/22 04:36:13;;;;;;;;;1.00;1.00;;;;;22.22;44.36;99537.81;4957632;28;45414;-54
2023/09/22 04:38:39;;;;;;;;;0.50;0.50;;;;;22.20;44.27;99531.81;4958082;28;45547;-54
2023/09/22 04:41:06;;;;;;;;;0.50;0.50;;;;;22.20;44.12;99534.47;4957627;28;45362;-56
2023/09/22 04:43:32;;;;;;;;;1.00;1.00;;;;;22.19;44.43;99536.28;4957805;28;45368;-53
2023/09/22 04:46:01;;;;;;;;;1.75;0.00;;;;;22.17;44.22;99540.84;4957335;28;46950;-54
2023/09/22 04:48:26;;;;;;;;;2.00;0.75;;;;;22.15;44.27;99540.13;4957635;28;45293;-55
2023/09/22 04:50:54;;;;;;;;;1.00;1.00;;;;;22.12;44.47;99540.38;4956813;28;56084;-54
2023/09/22 04:53:20;;;;;;;;;0.00;0.00;;;;;22.11;44.29;99538.69;4957858;28;45541;-55
2023/09/22 04:55:47;;;;;;;;;0.50;0.50;;;;;22.11;44.54;99533.41;4957401;28;46279;-55
2023/09/22 04:58:14;;;;;;;;;2.75;1.00;;;;;22.06;44.42;99544.34;4957743;28;45795;-57
2023/09/22 05:00:40;;;;;;;;;3.00;1.50;;;;;22.09;44.39;99546.75;4957840;28;45298;-56
2023/09/22 05:03:06;;;;;;;;;1.50;1.00;;;;;22.09;44.63;99535.38;4943053;28;45323;-55
2023/09/22 05:05:32;;;;;;;;;1.00;1.00;;;;;22.06;44.58;99535.63;4937705;28;47228;-55
2023/09/22 05:07:58;;;;;;;;;1.00;1.00;;;;;22.06;44.50;99548.81;4937940;28;45395;-55
2023/09/22 05:10:23;;;;;;;;;0.50;0.50;;;;;22.03;44.73;99544.63;4938185;28;45332;-56
2023/09/22 05:12:52;;;;;;;;;1.00;1.00;;;;;21.98;44.56;99538.06;4937653;28;51155;-59
2023/09/22 05:15:18;;;;;;;;;4.00;1.00;;;;;21.96;44.50;99543.44;4937788;28;46031;-57
2023/09/22 05:17:43;;;;;;;;;1.00;1.00;;;;;21.95;44.74;99543.56;4938157;28;45340;-54
2023/09/22 05:20:12;;;;;;;;;1.00;1.00;;;;;21.93;44.72;99555.09;4937985;28;45547;-52
2023/09/22 05:22:38;;;;;;;;;1.00;1.00;;;;;21.91;44.66;99549.09;4938213;28;45679;-53
2023/09/22 05:25:05;;;;;;;;;0.00;0.00;;;;;21.91;44.83;99554.38;4940930;28;46775;-56
2023/09/22 05:27:30;;;;;;;;;2.00;1.75;;;;;21.90;44.66;99542.13;4941027;28;45347;-53
2023/09/22 05:29:55;;;;;;;;;0.50;0.50;;;;;21.91;44.68;99535.06;4941397;28;45304;-54
2023/09/22 05:32:21;;;;;;;;;1.25;1.00;;;;;21.91;44.87;99543.81;4940905;28;45580;-56
2023/09/22 05:34:46;;;;;;;;;0.00;0.00;;;;;21.90;44.92;99543.94;4923382;28;48369;-55
2023/09/22 05:37:12;;;;;;;;;1.00;1.00;;;;;21.86;44.78;99548.63;4941194;28;45429;-52
2023/09/22 05:39:38;;;;;;;;;1.50;1.50;;;;;21.82;44.88;99544.56;4940667;28;49727;-53
2023/09/22 05:42:04;;;;;;;;;1.00;1.00;;;;;21.79;44.89;99542.16;4941161;28;45496;-56
2023/09/22 05:44:29;;;;;;;;;2.00;0.00;;;;;21.79;44.96;99542.16;4940749;28;45411;-56
2023/09/22 05:46:55;;;;;;;;;1.00;1.00;;;;;21.78;45.28;99538.72;4940711;28;45411;-55
2023/09/22 05:49:20;;;;;;;;;1.00;1.00;;;;;21.81;45.14;99536.78;4940643;28;45323;-55
2023/09/22 05:51:45;;;;;;;;;1.75;1.00;;;;;21.78;45.06;99522.88;4941174;28;45177;-57
2023/09/22 05:54:11;;;;;;;;;1.00;1.00;;;;;21.79;44.87;99531.63;4940367;28;52817;-53
2023/09/22 05:56:36;;;;;;;;;1.50;1.25;;;;;21.79;45.02;99534.25;4940003;28;45340;-56
2023/09/22 05:59:06;;;;;;;;;1.50;1.25;;;;;21.76;45.18;99534.53;4940678;28;45390;-53
2023/09/22 06:01:36;;;;;;;;;2.00;1.00;;;;;21.77;44.94;99536.22;4940889;28;45413;-55
2023/09/22 06:04:04;;;;;;;;;2.00;1.00;;;;;21.73;45.09;99529.50;4940564;28;47269;-57
2023/09/22 06:06:30;;;;;;;;;1.75;1.00;;;;;21.69;45.39;99522.78;4940349;28;45458;-51
2023/09/22 06:08:55;;;;;;;;;3.00;1.00;;;;;21.64;45.48;99524.97;4940634;28;45336;-53
2023/09/22 06:11:21;;;;;;;;;0.00;0.00;;;;;21.62;45.17;99531.22;4923311;28;45534;-53
2023/09/22 06:13:46;;;;;;;;;4.00;1.00;;;;;21.62;45.39;99527.72;4940566;28;45453;-55
2023/09/22 06:16:12;;;;;;;;;1.50;0.50;;;;;21.59;45.69;99536.72;4940186;28;45313;-51
2023/09/22 06:18:37;;;;;;;;;1.00;1.00;;;;;21.61;45.30;99553.25;4923028;28;45544;-51
2023/09/22 06:21:03;;;;;;;;;0.50;0.50;;;;;21.60;45.49;99535.75;4940601;28;45441;-53
2023/09/22 06:23:29;;;;;;;;;0.75;0.75;;;;;21.61;45.90;99534.81;4940054;28;46118;-53
2023/09/22 06:26:03;;;;;;;;;1.00;1.00;;;;;21.61;45.69;99547.13;4940064;28;45365;-53
2023/09/22 06:28:35;;;;;;;;;2.00;1.00;;;;;21.58;45.78;99550.81;4940472;28;45342;-52
2023/09/22 06:31:02;;;;;;;;;1.00;1.00;;;;;21.54;45.92;99549.41;4940216;28;45334;-52
2023/09/22 06:33:27;;;;;;;;;1.00;1.00;;;;;21.53;46.11;99553.00;4939620;28;46351;-54
2023/09/22 06:35:58;;;;;;;;;1.00;1.00;;;;;21.53;46.33;99553.00;4939971;28;45393;-52
2023/09/22 06:38:23;;;;;;;;;2.00;1.25;;;;;21.54;46.10;99538.88;4940181;28;45330;-53
2023/09/22 06:40:50;;;;;;;;;3.25;1.00;;;;;21.53;46.24;99538.97;4940564;28;45461;-53
2023/09/22 06:43:15;;;;;;;;;4.00;1.00;;;;;21.53;46.47;99549.53;4940159;28;47485;-53
2023/09/22 06:45:41;;;;;;;;;1.75;0.50;;;;;21.51;46.36;99552.28;4939987;28;45328;-54
2023/09/22 06:48:06;;;;;;;;;1.00;1.00;;;;;21.50;46.64;99540.06;4940043;28;45361;-52
2023/09/22 06:50:38;;;;;;;;;0.00;0.00;;;;;21.49;46.70;99546.28;4939964;28;45441;-53
2023/09/22 06:53:04;;;;;;;;;0.00;0.00;;;;;21.48;46.43;99541.97;4939872;28;45362;-49
2023/09/22 06:55:32;;;;;;;;;1.00;0.75;;;;;21.48;46.73;99549.88;4939351;28;45766;-54
2023/09/22 06:58:00;;;;;;;;;0.00;0.00;;;;;21.49;46.56;99542.84;4939886;28;45445;-55
2023/09/22 07:00:28;;;;;;;;;0.75;0.00;;;;;21.50;46.43;99549.78;4940061;28;45250;-52
2023/09/22 07:02:55;;;;;;;;;1.00;1.00;;;;;21.46;46.58;99550.03;4939652;28;46014;-53
2023/09/22 07:05:20;;;;;;;;;0.00;0.00;;;;;21.48;46.86;99544.63;4939954;28;45311;-53
2023/09/22 07:07:47;;;;;;;;;2.00;0.25;;;;;21.47;46.85;99545.56;4940132;28;45416;-52
2023/09/22 07:10:12;;;;;;;;;0.25;0.25;;;;;21.46;46.90;99554.44;4939948;28;45446;-52
2023/09/22 07:12:38;;;;;;;;;0.00;0.00;;;;;21.45;46.91;99547.50;4938206;28;47012;-54
2023/09/22 07:15:05;;;;;;;;;1.00;1.00;;;;;21.45;47.08;99544.84;4939616;28;45410;-56
2023/09/22 07:17:33;;;;;;;;;0.00;0.00;;;;;21.46;47.26;99546.53;4939602;28;45342;-56
2023/09/22 07:20:00;;;;;;;;;2.00;1.00;;;;;21.46;47.07;99542.13;4939843;28;45338;-53
2023/09/22 07:22:26;;;;;;;;;2.25;0.75;;;;;21.48;47.23;99536.72;4922116;28;46120;-53
2023/09/22 07:24:52;;;;;;;;;0.00;0.00;;;;;21.48;47.30;99539.34;4938216;28;45386;-53
2023/09/22 07:27:17;;;;;;;;;1.00;0.25;;;;;21.46;47.39;99528.09;4939740;28;45268;-55
2023/09/22 07:29:43;;;;;;;;;0.75;0.00;;;;;21.46;47.61;99533.34;4939674;28;45276;-54
2023/09/22 07:32:09;;;;;;;;;1.00;1.00;;;;;21.45;47.33;99531.66;4939149;28;45319;-56
2023/09/22 07:34:34;;;;;;;;;1.00;1.00;;;;;21.45;47.31;99521.13;4939268;28;45493;-53
2023/09/22 07:36:59;;;;;;;;;1.00;0.00;;;;;21.45;47.51;99524.63;4939306;28;45233;-57
2023/09/22 07:39:25;;;;;;;;;0.75;0.75;;;;;21.44;47.80;99530.03;4939178;28;45341;-54
2023/09/22 07:41:50;;;;;;;;;0.50;0.50;;;;;21.45;47.72;99531.66;4939120;28;45945;-55
2023/09/22 07:44:18;;;;;;;;;2.00;0.00;;;;;21.47;47.70;99521.84;4938731;28;51510;-51
2023/09/22 07:46:44;;;;;;;;;0.00;0.00;;;;;21.45;47.87;99521.13;4936787;28;45462;-53
2023/09/22 07:49:09;;;;;;;;;3.00;2.00;;;;;21.45;48.09;99521.13;4939039;28;45506;-50
2023/09/22 07:51:35;;;;;;;;;1.00;1.00;;;;;21.45;47.89;99521.13;4938750;28;47074;-54
2023/09/22 07:54:00;;;;;;;;;0.00;0.00;;;;;21.49;47.93;99521.75;4938908;28;45418;-53
2023/09/22 07:56:25;;;;;;;;;1.00;0.00;;;;;21.50;47.95;99518.97;4921628;28;45309;-50
2023/09/22 07:58:51;;;;;;;;;1.00;1.00;;;;;21.51;48.12;99531.19;4939518;28;45306;-50
2023/09/22 08:01:16;;;;;;;;;1.00;0.75;;;;;21.53;48.15;99524.00;4938719;28;46388;-50
2023/09/22 08:03:45;;;;;;;;;1.25;0.75;;;;;21.52;48.18;99524.13;4938676;28;45461;-55
2023/09/22 08:06:11;;;;;;;;;3.00;0.00;;;;;21.51;48.24;99527.72;4938120;28;45412;-52
2023/09/22 08:08:37;;;;;;;;;2.00;1.00;;;;;21.45;48.64;99527.25;4921008;28;45356;-53
2023/09/22 08:11:04;;;;;;;;;0.00;0.00;;;;;21.46;48.46;99528.94;4937724;28;46440;-53
2023/09/22 08:13:30;;;;;;;;;0.00;0.00;;;;;21.47;48.59;99519.22;4937961;28;45295;-53
2023/09/22 08:15:55;;;;;;;;;0.00;0.00;;;;;21.47;48.40;99522.72;4937962;28;45537;-53
2023/09/22 08:18:23;;;;;;;;;2.00;2.00;;;;;21.46;48.39;99525.44;4938468;28;45833;-56
2023/09/22 08:20:48;;;;;;;;;0.00;0.00;;;;;21.46;48.33;99528.09;4937722;28;46296;-50
2023/09/22 08:23:13;;;;;;;;;1.00;0.00;;;;;21.43;48.57;99533.63;4937316;28;61420;-52
2023/09/22 08:25:43;;;;;;;;;0.00;0.00;;;;;21.41;48.76;99540.81;4937759;28;45496;-52
2023/09/22 08:28:13;;;;;;;;;2.00;0.00;;;;;21.44;48.39;99540.56;4935372;28;45422;-55
2023/09/22 08:30:39;;;;;;;;;1.50;1.00;;;;;21.47;48.58;99545.56;4937656;28;47110;-57
2023/09/22 08:33:07;;;;;;;;;3.00;0.00;;;;;21.51;48.43;99535.63;4937634;28;45340;-53
2023/09/22 08:35:32;;;;;;;;;0.00;0.00;;;;;21.54;48.32;99536.25;4920381;28;45294;-54
2023/09/22 08:38:00;;;;;;;;;4.50;1.00;;;;;21.59;48.31;99546.44;4937718;28;45368;-55
2023/09/22 08:40:26;;;;;;;;;0.00;0.00;;;;;21.61;48.49;99537.44;4937708;28;46241;-52
2023/09/22 08:42:55;;;;;;;;;0.00;0.00;;;;;21.62;48.17;99549.66;4937864;28;45442;-54
2023/09/22 08:45:21;;;;;;;;;0.50;0.50;;;;;21.68;48.41;99550.13;4937470;28;45488;-50
2023/09/22 08:47:48;;;;;;;;;1.50;0.50;;;;;21.73;48.29;99553.22;4937533;28;45499;-54
2023/09/22 08:50:15;;;;;;;;;1.00;1.00;;;;;21.73;48.41;99542.69;4937274;28;45499;-55
2023/09/22 08:52:51;;;;;;;;;1.50;1.00;;;;;21.75;48.34;99560.03;4937194;28;45822;-53
2023/09/22 08:55:18;;;;;;;;;1.75;0.00;;;;;21.78;48.09;99573.00;4936089;28;45340;-54
2023/09/22 08:57:45;;;;;;;;;0.00;0.00;;;;;21.81;48.36;99590.38;4937379;28;46468;-54
2023/09/22 09:00:18;;;;;;;;;0.00;0.00;;;;;21.81;48.34;99579.00;4937079;28;45399;-52
2023/09/22 09:02:45;;;;;;;;;2.00;0.25;;;;;21.83;48.06;99566.53;4935835;28;45300;-51
2023/09/22 09:05:24;;;;;;;;;0.00;0.00;;;;;21.82;48.14;99570.13;4937227;28;45284;-54
2023/09/22 09:07:51;;;;;;;;;2.00;0.00;;;;;21.81;48.03;99569.25;4935044;28;45368;-54
2023/09/22 09:10:26;;;;;;;;;0.00;0.00;;;;;21.80;47.91;99561.50;4937881;28;46403;-54
2023/09/22 09:12:53;;;;;;;;;0.00;0.00;;;;;21.78;48.04;99548.41;4937895;28;45455;-54
2023/09/22 09:15:18;;;;;;;;;0.00;0.00;;;;;21.77;47.76;99555.50;4937926;28;45429;-55
2023/09/22 09:17:46;;;;;;;;;0.00;0.00;;;;;21.77;47.73;99552.84;4938051;28;45490;-53
2023/09/22 09:20:11;;;;;;;;;1.00;0.00;;;;;21.77;47.73;99560.78;4936550;28;46314;-53
2023/09/22 09:22:37;;;;;;;;;0.00;0.00;;;;;21.78;47.83;99564.22;4937412;28;45275;-55
2023/09/22 09:25:07;;;;;;;;;0.00;0.00;;;;;21.78;48.18;99559.81;4937743;28;45294;-53
2023/09/22 09:27:33;;;;;;;;;0.00;0.00;;;;;21.82;47.84;99563.03;4920748;28;45334;-53
2023/09/22 09:30:06;;;;;;;;;0.00;0.00;;;;;21.82;47.82;99563.03;4936957;28;66174;-55
2023/09/22 09:32:32;;;;;;;;;0.00;0.00;;;;;21.83;47.61;99569.97;4937273;28;45481;-53
2023/09/22 09:34:58;;;;;;;;;0.00;0.00;;;;;21.84;47.57;99566.38;4938058;28;45303;-55
2023/09/22 09:37:23;;;;;;;;;0.00;0.00;;;;;21.84;47.76;99574.31;4937822;28;45434;-57
2023/09/22 09:39:53;;;;;;;;;1.00;0.00;;;;;21.87;47.80;99567.94;4937475;28;46050;-55
2023/09/22 09:42:23;;;;;;;;;0.00;0.00;;;;;21.89;47.76;99581.84;4937542;28;45531;-57
2023/09/22 09:44:51;;;;;;;;;0.00;0.00;;;;;21.90;47.71;99584.34;4937609;28;45345;-57
2023/09/22 09:47:24;;;;;;;;;0.00;0.00;;;;;21.90;47.61;99584.34;4937788;28;45496;-53
2023/09/22 09:49:54;;;;;;;;;0.00;0.00;;;;;21.96;47.42;99580.38;4937058;28;47167;-56
2023/09/22 09:52:35;;;;;;;;;0.00;0.00;;;;;21.97;47.63;99570.66;4937374;28;45386;-54
2023/09/22 09:55:08;;;;;;;;;0.00;0.00;;;;;22.00;47.59;99580.94;4937458;28;45387;-56
2023/09/22 09:57:38;;;;;;;;;0.00;0.00;;;;;22.00;47.54;99583.59;4937445;28;45446;-56
2023/09/22 10:00:14;;;;;;;;;1.00;0.00;;;;;22.01;47.35;99587.91;4937187;28;47092;-56
2023/09/22 10:02:44;;;;;;;;;0.00;0.00;;;;;22.03;47.70;99599.19;4937441;28;45230;-55
2023/09/22 10:05:15;;;;;;;;;0.00;0.00;;;;;22.04;47.30;99599.06;4937304;28;45343;-54
2023/09/22 10:07:43;;;;;;;;;0.00;0.00;;;;;22.06;47.30;99605.03;4937440;28;45280;-54
2023/09/22 10:10:10;;;;;;;;;1.00;0.00;;;;;22.06;47.28;99607.66;4939272;28;46500;-53
2023/09/22 10:12:36;;;;;;;;;0.00;0.00;;;;;22.06;47.21;99612.13;4940519;28;45302;-54
2023/09/22 10:15:04;;;;;;;;;0.25;0.00;;;;;22.09;47.16;99617.16;4940983;28;45355;-52
2023/09/22 10:17:30;;;;;;;;;0.00;0.00;;;;;22.09;47.40;99619.81;4941046;28;45521;-55
2023/09/22 10:19:56;;;;;;;;;0.00;0.00;;;;;22.09;47.30;99633.00;4940341;28;46380;-56
2023/09/22 10:22:21;;;;;;;;;0.00;0.00;;;;;22.10;47.23;99647.88;4940373;28;45378;-53
2023/09/22 10:25:12;;;;;;;;;0.00;0.00;;;;;22.11;47.09;99660.06;4940447;28;45259;-54
2023/09/22 10:28:00;;;;;;;;;1.00;0.00;;;;;22.13;47.28;99673.16;4940523;28;45244;-57
2023/09/22 10:30:45;;;;;;;;;0.00;0.00;;;;;22.14;47.12;99670.38;4940032;28;46949;-55
2023/09/22 10:33:22;;;;;;;;;0.00;0.00;;;;;22.15;46.93;99668.59;4940063;28;45672;-54
2023/09/22 10:35:49;;;;;;;;;0.00;0.00;;;;;22.16;47.17;99678.19;4940411;28;46249;-54
2023/09/22 10:38:14;;;;;;;;;2.00;0.00;;;;;22.17;46.92;99685.13;4940410;28;45535;-55
2023/09/22 10:41:00;;;;;;;;;1.00;0.00;;;;;22.18;47.07;99692.94;4940066;28;45488;-55
2023/09/22 10:43:32;;;;;;;;;0.00;0.00;;;;;22.20;47.03;99691.03;4939986;28;45327;-54
2023/09/22 10:46:01;;;;;;;;;0.00;0.00;;;;;22.20;46.73;99701.56;4940068;28;45506;-58
2023/09/22 10:48:37;;;;;;;;;0.25;0.00;;;;;22.20;46.62;99706.84;4940318;28;45193;-56
2023/09/22 10:51:06;;;;;;;;;0.00;0.00;;;;;22.20;46.37;99727.97;4922595;28;47170;-53
2023/09/22 10:53:34;;;;;;;;;1.25;0.00;;;;;22.18;46.53;99721.13;4940188;28;45360;-55
2023/09/22 10:56:02;;;;;;;;;0.00;0.00;;;;;22.18;46.03;99721.13;4940402;28;45417;-55
2023/09/22 10:58:28;;;;;;;;;0.00;0.00;;;;;22.19;46.43;99721.00;4940207;28;45317;-57
2023/09/22 11:01:08;;;;;;;;;0.00;0.00;;;;;22.21;46.65;99729.63;4939587;28;45333;-57
2023/09/22 11:03:33;;;;;;;;;0.50;0.25;;;;;22.21;46.39;99726.97;4940073;28;45685;-55
2023/09/22 11:06:10;;;;;;;;;2.00;0.00;;;;;22.23;46.49;99740.91;4939666;28;45354;-54
2023/09/22 11:08:55;;;;;;;;;1.25;0.00;;;;;22.24;46.20;99739.94;4939772;28;45314;-54
2023/09/22 11:11:20;;;;;;;;;1.00;1.00;;;;;22.23;46.54;99754.09;4939172;28;46353;-59
2023/09/22 11:13:56;;;;;;;;;0.25;0.25;;;;;22.24;46.39;99755.78;4939463;28;47475;-54
2023/09/22 11:16:22;;;;;;;;;2.00;1.00;;;;;22.25;46.28;99751.34;4939478;28;45311;-58
2023/09/22 11:18:51;;;;;;;;;0.75;0.00;;;;;22.25;46.35;99761.91;4939777;28;45561;-59
2023/09/22 11:21:17;;;;;;;;;1.00;1.00;;;;;22.28;46.26;99766.09;4939207;28;46100;-57
2023/09/22 11:23:42;;;;;;;;;2.75;1.00;;;;;22.27;46.34;99767.88;4939166;28;45283;-55
2023/09/22 11:26:12;;;;;;;;;1.00;1.00;;;;;22.27;46.29;99770.53;4939412;28;45368;-55
2023/09/22 11:28:48;;;;;;;;;0.25;0.25;;;;;22.28;46.04;99779.28;4939432;28;45581;-56
2023/09/22 11:31:19;;;;;;;;;1.00;0.25;;;;;22.27;46.08;99780.25;4939125;28;46938;-51
2023/09/22 11:33:58;;;;;;;;;1.00;1.00;;;;;22.30;45.50;99793.22;4921693;28;45658;-53